sensor_id;sensor_type;location;lat;lon;timestamp;temperature;humidity
53282;DHT22;39167;52.794;6.892;2022-09-01T00:00:07;14.00;99.90
53282;DHT22;39167;52.794;6.892;2022-09-01T00:02:33;14.00;99.90
53282;DHT22;39167;52.794;6.892;2022-09-01T00:05:00;14.00;99.90
53282;DHT22;39167;52.794;6.892;2022-09-01T00:07:29;13.90;99.90
53282;DHT22;39167;52.794;6.892;2022-09-01T00:09:56;13.90;99.90
53282;DHT22;39167;52.794;6.892;2022-09-01T00:12:22;13.90;99.90
53282;DHT22;39167;52.794;6.892;2022-09-01T00:14:50;13.80;99.90
53282;DHT22;39167;52.794;6.892;2022-09-01T00:17:16;13.90;99.90
53282;DHT22;39167;52.794;6.892;2022-09-01T00:19:41;13.80;99.90
53282;DHT22;39167;52.794;6.892;2022-09-01T00:22:07;13.80;99.90
53282;DHT22;39167;52.794;6.892;2022-09-01T00:24:34;13.70;99.90
53282;DHT22;39167;52.794;6.892;2022-09-01T00:27:00;13.70;99.90
53282;DHT22;39167;52.794;6.892;2022-09-01T00:29:25;13.70;99.90
53282;DHT22;39167;52.794;6.892;2022-09-01T00:31:51;13.70;99.90
53282;DHT22;39167;52.794;6.892;2022-09-01T00:34:18;13.70;99.90
53282;DHT22;39167;52.794;6.892;2022-09-01T00:36:43;13.70;99.90
53282;DHT22;39167;52.794;6.892;2022-09-01T00:39:09;13.70;99.90
53282;DHT22;39167;52.794;6.892;2022-09-01T00:41:37;13.70;99.90
53282;DHT22;39167;52.794;6.892;2022-09-01T00:44:08;13.60;99.90
53282;DHT22;39167;52.794;6.892;2022-09-01T00:46:47;13.60;99.90
53282;DHT22;39167;52.794;6.892;2022-09-01T00:49:28;13.60;99.90
53282;DHT22;39167;52.794;6.892;2022-09-01T00:52:06;13.60;99.90
53282;DHT22;39167;52.794;6.892;2022-09-01T00:54:36;13.60;99.90
53282;DHT22;39167;52.794;6.892;2022-09-01T00:57:05;13.60;99.90
53282;DHT22;39167;52.794;6.892;2022-09-01T00:59:34;13.50;99.90
53282;DHT22;39167;52.794;6.892;2022-09-01T01:02:02;13.50;99.90
53282;DHT22;39167;52.794;6.892;2022-09-01T01:04:28;13.50;99.90
53282;DHT22;39167;52.794;6.892;2022-09-01T01:06:56;13.50;99.90
53282;DHT22;39167;52.794;6.892;2022-09-01T01:09:29;13.40;99.90
53282;DHT22;39167;52.794;6.892;2022-09-01T01:11:56;13.40;99.90
53282;DHT22;39167;52.794;6.892;2022-09-01T01:14:25;13.40;99.90
53282;DHT22;39167;52.794;6.892;2022-09-01T01:16:53;13.40;99.90
53282;DHT22;39167;52.794;6.892;2022-09-01T01:19:51;13.40;99.90
53282;DHT22;39167;52.794;6.892;2022-09-01T01:28:04;13.30;99.90
53282;DHT22;39167;52.794;6.892;2022-09-01T01:30:31;13.30;99.90
53282;DHT22;39167;52.794;6.892;2022-09-01T01:32:58;13.30;99.90
53282;DHT22;39167;52.794;6.892;2022-09-01T01:35:24;13.20;99.90
53282;DHT22;39167;52.794;6.892;2022-09-01T01:37:51;13.20;99.90
53282;DHT22;39167;52.794;6.892;2022-09-01T01:40:19;13.20;99.90
53282;DHT22;39167;52.794;6.892;2022-09-01T01:42:50;13.20;99.90
53282;DHT22;39167;52.794;6.892;2022-09-01T01:45:18;13.20;99.90
53282;DHT22;39167;52.794;6.892;2022-09-01T01:47:46;13.20;99.90
53282;DHT22;39167;52.794;6.892;2022-09-01T01:50:27;13.10;99.90
53282;DHT22;39167;52.794;6.892;2022-09-01T01:52:55;13.10;99.90
53282;DHT22;39167;52.794;6.892;2022-09-01T01:55:25;13.10;99.90
53282;DHT22;39167;52.794;6.892;2022-09-01T01:57:53;13.10;99.90
53282;DHT22;39167;52.794;6.892;2022-09-01T02:00:22;13.10;99.90
53282;DHT22;39167;52.794;6.892;2022-09-01T02:02:49;13.10;99.90
53282;DHT22;39167;52.794;6.892;2022-09-01T02:05:29;13.00;99.90
53282;DHT22;39167;52.794;6.892;2022-09-01T02:08:02;13.00;99.90
53282;DHT22;39167;52.794;6.892;2022-09-01T02:10:35;13.00;99.90
53282;DHT22;39167;52.794;6.892;2022-09-01T02:13:04;13.00;99.90
53282;DHT22;39167;52.794;6.892;2022-09-01T02:15:39;12.90;99.90
53282;DHT22;39167;52.794;6.892;2022-09-01T02:18:14;12.90;99.90
53282;DHT22;39167;52.794;6.892;2022-09-01T02:20:41;12.90;99.90
53282;DHT22;39167;52.794;6.892;2022-09-01T02:23:08;12.90;99.90
53282;DHT22;39167;52.794;6.892;2022-09-01T02:25:41;12.80;99.90
53282;DHT22;39167;52.794;6.892;2022-09-01T02:28:10;12.80;99.90
53282;DHT22;39167;52.794;6.892;2022-09-01T02:30:39;12.80;99.90
53282;DHT22;39167;52.794;6.892;2022-09-01T02:33:06;12.70;99.90
53282;DHT22;39167;52.794;6.892;2022-09-01T02:35:35;12.80;99.90
53282;DHT22;39167;52.794;6.892;2022-09-01T02:38:05;12.80;99.90
53282;DHT22;39167;52.794;6.892;2022-09-01T02:40:32;12.70;99.90
53282;DHT22;39167;52.794;6.892;2022-09-01T02:42:59;12.80;99.90
53282;DHT22;39167;52.794;6.892;2022-09-01T02:45:28;12.70;99.90
53282;DHT22;39167;52.794;6.892;2022-09-01T02:47:55;12.80;99.90
53282;DHT22;39167;52.794;6.892;2022-09-01T02:50:22;12.70;99.90
53282;DHT22;39167;52.794;6.892;2022-09-01T02:52:50;12.70;99.90
53282;DHT22;39167;52.794;6.892;2022-09-01T02:55:17;12.70;99.90
53282;DHT22;39167;52.794;6.892;2022-09-01T02:57:50;12.70;99.90
53282;DHT22;39167;52.794;6.892;2022-09-01T03:00:20;12.70;99.90
53282;DHT22;39167;52.794;6.892;2022-09-01T03:02:51;12.70;99.90
53282;DHT22;39167;52.794;6.892;2022-09-01T03:05:21;12.70;99.90
53282;DHT22;39167;52.794;6.892;2022-09-01T03:08:10;12.70;99.90
53282;DHT22;39167;52.794;6.892;2022-09-01T03:10:42;12.60;99.90
53282;DHT22;39167;52.794;6.892;2022-09-01T03:13:11;12.60;99.90
53282;DHT22;39167;52.794;6.892;2022-09-01T03:15:39;12.60;99.90
53282;DHT22;39167;52.794;6.892;2022-09-01T03:18:07;12.60;99.90
53282;DHT22;39167;52.794;6.892;2022-09-01T03:20:35;12.50;99.90
53282;DHT22;39167;52.794;6.892;2022-09-01T03:23:03;12.50;99.90
53282;DHT22;39167;52.794;6.892;2022-09-01T03:25:31;12.50;99.90
53282;DHT22;39167;52.794;6.892;2022-09-01T03:27:59;12.60;99.90
53282;DHT22;39167;52.794;6.892;2022-09-01T03:30:27;12.60;99.90
53282;DHT22;39167;52.794;6.892;2022-09-01T03:32:55;12.50;99.90
53282;DHT22;39167;52.794;6.892;2022-09-01T03:35:22;12.60;99.90
53282;DHT22;39167;52.794;6.892;2022-09-01T03:37:48;12.60;99.90
53282;DHT22;39167;52.794;6.892;2022-09-01T03:40:15;12.60;99.90
53282;DHT22;39167;52.794;6.892;2022-09-01T03:42:42;12.50;99.90
53282;DHT22;39167;52.794;6.892;2022-09-01T03:45:09;12.60;99.90
53282;DHT22;39167;52.794;6.892;2022-09-01T03:47:41;12.50;99.90
53282;DHT22;39167;52.794;6.892;2022-09-01T03:50:11;12.50;99.90
53282;DHT22;39167;52.794;6.892;2022-09-01T03:52:51;12.50;99.90
53282;DHT22;39167;52.794;6.892;2022-09-01T03:55:21;12.60;99.90
53282;DHT22;39167;52.794;6.892;2022-09-01T03:57:57;12.60;99.90
53282;DHT22;39167;52.794;6.892;2022-09-01T04:00:26;12.60;99.90
53282;DHT22;39167;52.794;6.892;2022-09-01T04:02:56;12.60;99.90
53282;DHT22;39167;52.794;6.892;2022-09-01T04:05:25;12.60;99.90
53282;DHT22;39167;52.794;6.892;2022-09-01T04:07:58;12.60;99.90
53282;DHT22;39167;52.794;6.892;2022-09-01T04:10:27;12.60;99.90
53282;DHT22;39167;52.794;6.892;2022-09-01T04:12:52;12.70;99.90
53282;DHT22;39167;52.794;6.892;2022-09-01T04:15:20;12.70;99.90
53282;DHT22;39167;52.794;6.892;2022-09-01T04:17:46;12.70;99.90
53282;DHT22;39167;52.794;6.892;2022-09-01T04:20:30;12.70;99.90
53282;DHT22;39167;52.794;6.892;2022-09-01T04:23:07;12.70;99.90
53282;DHT22;39167;52.794;6.892;2022-09-01T04:25:36;12.70;99.90
53282;DHT22;39167;52.794;6.892;2022-09-01T04:28:04;12.70;99.90
53282;DHT22;39167;52.794;6.892;2022-09-01T04:30:39;12.70;99.90
53282;DHT22;39167;52.794;6.892;2022-09-01T04:33:08;12.70;99.90
53282;DHT22;39167;52.794;6.892;2022-09-01T04:35:38;12.70;99.90
53282;DHT22;39167;52.794;6.892;2022-09-01T04:38:05;12.70;99.90
53282;DHT22;39167;52.794;6.892;2022-09-01T04:40:37;12.70;99.90
53282;DHT22;39167;52.794;6.892;2022-09-01T04:43:04;12.70;99.90
53282;DHT22;39167;52.794;6.892;2022-09-01T04:45:30;12.70;99.90
53282;DHT22;39167;52.794;6.892;2022-09-01T04:47:56;12.60;99.90
53282;DHT22;39167;52.794;6.892;2022-09-01T04:50:25;12.60;99.90
53282;DHT22;39167;52.794;6.892;2022-09-01T04:52:59;12.60;99.90
53282;DHT22;39167;52.794;6.892;2022-09-01T04:55:26;12.60;99.90
53282;DHT22;39167;52.794;6.892;2022-09-01T04:57:56;12.60;99.90
53282;DHT22;39167;52.794;6.892;2022-09-01T05:00:23;12.50;99.90
53282;DHT22;39167;52.794;6.892;2022-09-01T05:02:51;12.50;99.90
53282;DHT22;39167;52.794;6.892;2022-09-01T05:05:22;12.50;99.90
53282;DHT22;39167;52.794;6.892;2022-09-01T05:07:48;12.50;99.90
53282;DHT22;39167;52.794;6.892;2022-09-01T05:10:18;12.50;99.90
53282;DHT22;39167;52.794;6.892;2022-09-01T05:12:44;12.40;99.90
53282;DHT22;39167;52.794;6.892;2022-09-01T05:15:12;12.40;99.90
53282;DHT22;39167;52.794;6.892;2022-09-01T05:17:38;12.40;99.90
53282;DHT22;39167;52.794;6.892;2022-09-01T05:20:05;12.30;99.90
53282;DHT22;39167;52.794;6.892;2022-09-01T05:22:31;12.30;99.90
53282;DHT22;39167;52.794;6.892;2022-09-01T05:24:58;12.30;99.90
53282;DHT22;39167;52.794;6.892;2022-09-01T05:27:41;12.30;99.90
53282;DHT22;39167;52.794;6.892;2022-09-01T05:30:15;12.30;99.90
53282;DHT22;39167;52.794;6.892;2022-09-01T05:32:42;12.30;99.90
53282;DHT22;39167;52.794;6.892;2022-09-01T05:35:10;12.30;99.90
53282;DHT22;39167;52.794;6.892;2022-09-01T05:37:36;12.30;99.90
53282;DHT22;39167;52.794;6.892;2022-09-01T05:40:05;12.30;99.90
53282;DHT22;39167;52.794;6.892;2022-09-01T05:42:33;12.30;99.90
53282;DHT22;39167;52.794;6.892;2022-09-01T05:44:59;12.30;99.90
53282;DHT22;39167;52.794;6.892;2022-09-01T05:47:27;12.30;99.90
53282;DHT22;39167;52.794;6.892;2022-09-01T05:49:53;12.30;99.90
53282;DHT22;39167;52.794;6.892;2022-09-01T05:52:19;12.30;99.90
53282;DHT22;39167;52.794;6.892;2022-09-01T05:54:49;12.30;99.90
53282;DHT22;39167;52.794;6.892;2022-09-01T05:57:16;12.40;99.90
53282;DHT22;39167;52.794;6.892;2022-09-01T05:59:43;12.40;99.90
53282;DHT22;39167;52.794;6.892;2022-09-01T06:02:10;12.30;99.90
53282;DHT22;39167;52.794;6.892;2022-09-01T06:04:37;12.40;99.90
53282;DHT22;39167;52.794;6.892;2022-09-01T06:07:15;12.40;99.90
53282;DHT22;39167;52.794;6.892;2022-09-01T06:09:46;12.40;99.90
53282;DHT22;39167;52.794;6.892;2022-09-01T06:12:14;12.50;99.90
53282;DHT22;39167;52.794;6.892;2022-09-01T06:14:50;12.50;99.90
53282;DHT22;39167;52.794;6.892;2022-09-01T06:17:17;12.50;99.90
53282;DHT22;39167;52.794;6.892;2022-09-01T06:19:46;12.50;99.90
53282;DHT22;39167;52.794;6.892;2022-09-01T06:22:12;12.60;99.90
53282;DHT22;39167;52.794;6.892;2022-09-01T06:24:38;12.60;99.90
53282;DHT22;39167;52.794;6.892;2022-09-01T06:27:08;12.60;99.90
53282;DHT22;39167;52.794;6.892;2022-09-01T06:29:36;12.60;99.90
53282;DHT22;39167;52.794;6.892;2022-09-01T06:32:05;12.70;99.90
53282;DHT22;39167;52.794;6.892;2022-09-01T06:34:39;12.70;99.90
53282;DHT22;39167;52.794;6.892;2022-09-01T06:37:06;12.70;99.90
53282;DHT22;39167;52.794;6.892;2022-09-01T06:39:32;12.80;99.90
53282;DHT22;39167;52.794;6.892;2022-09-01T06:41:59;12.80;99.90
53282;DHT22;39167;52.794;6.892;2022-09-01T06:44:27;12.80;99.90
53282;DHT22;39167;52.794;6.892;2022-09-01T06:46:55;12.90;99.90
53282;DHT22;39167;52.794;6.892;2022-09-01T06:49:21;12.90;99.90
53282;DHT22;39167;52.794;6.892;2022-09-01T06:51:54;13.00;99.90
53282;DHT22;39167;52.794;6.892;2022-09-01T06:54:19;13.00;99.90
53282;DHT22;39167;52.794;6.892;2022-09-01T06:56:46;13.10;99.90
53282;DHT22;39167;52.794;6.892;2022-09-01T06:59:11;13.20;99.90
53282;DHT22;39167;52.794;6.892;2022-09-01T07:01:40;13.20;99.90
53282;DHT22;39167;52.794;6.892;2022-09-01T07:04:06;13.40;99.90
53282;DHT22;39167;52.794;6.892;2022-09-01T07:06:32;13.40;99.90
53282;DHT22;39167;52.794;6.892;2022-09-01T07:09:00;13.50;99.90
53282;DHT22;39167;52.794;6.892;2022-09-01T07:11:28;13.60;99.90
53282;DHT22;39167;52.794;6.892;2022-09-01T07:13:57;13.70;99.90
53282;DHT22;39167;52.794;6.892;2022-09-01T07:16:27;13.80;99.90
53282;DHT22;39167;52.794;6.892;2022-09-01T07:18:55;13.80;99.90
53282;DHT22;39167;52.794;6.892;2022-09-01T07:21:22;13.90;99.90
53282;DHT22;39167;52.794;6.892;2022-09-01T07:23:48;14.00;99.90
53282;DHT22;39167;52.794;6.892;2022-09-01T07:26:13;14.10;99.90
53282;DHT22;39167;52.794;6.892;2022-09-01T07:28:47;14.10;99.90
53282;DHT22;39167;52.794;6.892;2022-09-01T07:31:36;14.20;99.90
53282;DHT22;39167;52.794;6.892;2022-09-01T07:34:05;14.30;99.90
53282;DHT22;39167;52.794;6.892;2022-09-01T07:36:32;14.40;99.90
53282;DHT22;39167;52.794;6.892;2022-09-01T07:39:00;14.50;99.90
53282;DHT22;39167;52.794;6.892;2022-09-01T07:41:26;14.60;99.90
53282;DHT22;39167;52.794;6.892;2022-09-01T07:43:53;14.70;99.90
53282;DHT22;39167;52.794;6.892;2022-09-01T07:46:22;14.80;99.90
53282;DHT22;39167;52.794;6.892;2022-09-01T07:48:51;14.90;99.90
53282;DHT22;39167;52.794;6.892;2022-09-01T07:51:19;15.00;99.90
53282;DHT22;39167;52.794;6.892;2022-09-01T07:53:46;15.10;99.90
53282;DHT22;39167;52.794;6.892;2022-09-01T07:56:17;15.20;99.90
53282;DHT22;39167;52.794;6.892;2022-09-01T07:58:45;15.40;99.90
53282;DHT22;39167;52.794;6.892;2022-09-01T08:01:17;15.50;99.90
53282;DHT22;39167;52.794;6.892;2022-09-01T08:03:46;15.60;99.90
53282;DHT22;39167;52.794;6.892;2022-09-01T08:06:14;15.80;99.90
53282;DHT22;39167;52.794;6.892;2022-09-01T08:08:48;15.90;99.90
53282;DHT22;39167;52.794;6.892;2022-09-01T08:11:20;16.00;99.90
53282;DHT22;39167;52.794;6.892;2022-09-01T08:13:47;16.10;99.90
53282;DHT22;39167;52.794;6.892;2022-09-01T08:16:13;16.20;99.90
53282;DHT22;39167;52.794;6.892;2022-09-01T08:18:40;16.40;99.90
53282;DHT22;39167;52.794;6.892;2022-09-01T08:21:10;16.50;99.90
53282;DHT22;39167;52.794;6.892;2022-09-01T08:23:38;16.60;99.90
53282;DHT22;39167;52.794;6.892;2022-09-01T08:26:09;16.70;99.90
53282;DHT22;39167;52.794;6.892;2022-09-01T08:28:35;16.90;99.90
53282;DHT22;39167;52.794;6.892;2022-09-01T08:31:08;17.00;99.90
53282;DHT22;39167;52.794;6.892;2022-09-01T08:33:38;17.10;99.90
53282;DHT22;39167;52.794;6.892;2022-09-01T08:36:07;17.20;99.90
53282;DHT22;39167;52.794;6.892;2022-09-01T08:38:33;17.40;99.90
53282;DHT22;39167;52.794;6.892;2022-09-01T08:41:00;17.50;99.90
53282;DHT22;39167;52.794;6.892;2022-09-01T08:46:16;17.80;99.90
53282;DHT22;39167;52.794;6.892;2022-09-01T08:48:50;17.90;99.90
53282;DHT22;39167;52.794;6.892;2022-09-01T08:51:25;18.10;99.90
53282;DHT22;39167;52.794;6.892;2022-09-01T08:57:06;18.40;99.90
53282;DHT22;39167;52.794;6.892;2022-09-01T08:59:33;18.60;99.90
53282;DHT22;39167;52.794;6.892;2022-09-01T09:04:57;18.90;99.90
53282;DHT22;39167;52.794;6.892;2022-09-01T09:07:44;19.00;99.90
53282;DHT22;39167;52.794;6.892;2022-09-01T09:10:18;19.20;99.90
53282;DHT22;39167;52.794;6.892;2022-09-01T09:13:12;19.30;99.90
53282;DHT22;39167;52.794;6.892;2022-09-01T09:15:51;19.50;99.90
53282;DHT22;39167;52.794;6.892;2022-09-01T09:18:46;19.70;99.90
53282;DHT22;39167;52.794;6.892;2022-09-01T09:21:23;19.80;99.90
53282;DHT22;39167;52.794;6.892;2022-09-01T09:23:55;20.00;99.90
53282;DHT22;39167;52.794;6.892;2022-09-01T09:26:24;20.10;99.90
53282;DHT22;39167;52.794;6.892;2022-09-01T09:28:51;20.20;99.90
53282;DHT22;39167;52.794;6.892;2022-09-01T09:31:26;20.30;99.90
53282;DHT22;39167;52.794;6.892;2022-09-01T09:33:52;20.50;99.90
53282;DHT22;39167;52.794;6.892;2022-09-01T09:36:28;20.60;99.90
53282;DHT22;39167;52.794;6.892;2022-09-01T09:39:16;20.80;99.90
53282;DHT22;39167;52.794;6.892;2022-09-01T09:41:43;20.90;99.90
53282;DHT22;39167;52.794;6.892;2022-09-01T09:44:26;20.90;99.90
53282;DHT22;39167;52.794;6.892;2022-09-01T09:46:55;21.00;99.90
53282;DHT22;39167;52.794;6.892;2022-09-01T09:49:32;21.10;99.90
53282;DHT22;39167;52.794;6.892;2022-09-01T09:54:28;21.30;99.90
53282;DHT22;39167;52.794;6.892;2022-09-01T09:57:23;21.40;99.90
53282;DHT22;39167;52.794;6.892;2022-09-01T09:59:57;21.60;99.90
53282;DHT22;39167;52.794;6.892;2022-09-01T10:02:39;21.70;99.90
53282;DHT22;39167;52.794;6.892;2022-09-01T10:05:41;21.80;99.90
53282;DHT22;39167;52.794;6.892;2022-09-01T10:08:54;21.90;99.90
53282;DHT22;39167;52.794;6.892;2022-09-01T10:10:59;22.10;99.90
53282;DHT22;39167;52.794;6.892;2022-09-01T10:13:26;22.20;99.90
53282;DHT22;39167;52.794;6.892;2022-09-01T10:16:00;22.30;99.90
53282;DHT22;39167;52.794;6.892;2022-09-01T10:18:34;22.30;99.90
53282;DHT22;39167;52.794;6.892;2022-09-01T10:21:07;22.50;99.90
53282;DHT22;39167;52.794;6.892;2022-09-01T10:23:35;22.60;99.90
53282;DHT22;39167;52.794;6.892;2022-09-01T10:29:06;22.90;99.90
53282;DHT22;39167;52.794;6.892;2022-09-01T10:31:33;23.00;99.90
53282;DHT22;39167;52.794;6.892;2022-09-01T10:34:04;23.10;99.90
53282;DHT22;39167;52.794;6.892;2022-09-01T10:36:37;23.20;99.90
53282;DHT22;39167;52.794;6.892;2022-09-01T10:39:10;23.30;99.90
53282;DHT22;39167;52.794;6.892;2022-09-01T10:44:30;23.40;99.80
53282;DHT22;39167;52.794;6.892;2022-09-01T10:47:02;23.40;99.90
53282;DHT22;39167;52.794;6.892;2022-09-01T10:51:58;23.20;99.20
53282;DHT22;39167;52.794;6.892;2022-09-01T10:57:24;22.80;99.10
53282;DHT22;39167;52.794;6.892;2022-09-01T10:59:51;22.70;99.60
53282;DHT22;39167;52.794;6.892;2022-09-01T11:02:19;22.60;99.80
53282;DHT22;39167;52.794;6.892;2022-09-01T11:13:10;22.40;99.50
53282;DHT22;39167;52.794;6.892;2022-09-01T11:15:41;22.60;99.60
53282;DHT22;39167;52.794;6.892;2022-09-01T11:18:24;22.70;99.70
53282;DHT22;39167;52.794;6.892;2022-09-01T11:20:51;22.70;99.00
53282;DHT22;39167;52.794;6.892;2022-09-01T11:23:29;22.70;98.90
53282;DHT22;39167;52.794;6.892;2022-09-01T11:26:01;22.60;98.90
53282;DHT22;39167;52.794;6.892;2022-09-01T11:28:46;22.60;99.20
53282;DHT22;39167;52.794;6.892;2022-09-01T11:31:21;22.80;99.30
53282;DHT22;39167;52.794;6.892;2022-09-01T11:42:06;23.60;97.80
53282;DHT22;39167;52.794;6.892;2022-09-01T11:45:01;23.80;97.20
53282;DHT22;39167;52.794;6.892;2022-09-01T11:47:31;24.00;97.00
53282;DHT22;39167;52.794;6.892;2022-09-01T11:52:35;24.00;96.20
53282;DHT22;39167;52.794;6.892;2022-09-01T11:55:04;23.90;96.60
53282;DHT22;39167;52.794;6.892;2022-09-01T11:57:36;23.60;96.30
53282;DHT22;39167;52.794;6.892;2022-09-01T12:00:12;23.70;96.60
53282;DHT22;39167;52.794;6.892;2022-09-01T12:02:49;23.90;96.40
53282;DHT22;39167;52.794;6.892;2022-09-01T12:05:30;24.20;95.70
53282;DHT22;39167;52.794;6.892;2022-09-01T12:07:57;24.20;95.00
53282;DHT22;39167;52.794;6.892;2022-09-01T12:13:09;23.80;94.90
53282;DHT22;39167;52.794;6.892;2022-09-01T12:15:37;23.50;94.80
53282;DHT22;39167;52.794;6.892;2022-09-01T12:20:40;23.40;94.80
53282;DHT22;39167;52.794;6.892;2022-09-01T12:23:37;23.60;94.80
53282;DHT22;39167;52.794;6.892;2022-09-01T12:26:13;23.90;94.90
53282;DHT22;39167;52.794;6.892;2022-09-01T12:28:40;24.30;94.90
53282;DHT22;39167;52.794;6.892;2022-09-01T12:31:19;24.50;94.60
53282;DHT22;39167;52.794;6.892;2022-09-01T12:33:46;24.70;94.10
53282;DHT22;39167;52.794;6.892;2022-09-01T12:36:26;24.90;93.80
53282;DHT22;39167;52.794;6.892;2022-09-01T12:38:59;25.00;93.30
53282;DHT22;39167;52.794;6.892;2022-09-01T12:44:46;25.40;92.50
53282;DHT22;39167;52.794;6.892;2022-09-01T12:49:58;25.10;91.90
53282;DHT22;39167;52.794;6.892;2022-09-01T12:52:28;24.80;92.20
53282;DHT22;39167;52.794;6.892;2022-09-01T12:55:15;24.60;91.80
53282;DHT22;39167;52.794;6.892;2022-09-01T12:57:49;24.40;91.50
53282;DHT22;39167;52.794;6.892;2022-09-01T13:00:31;24.30;91.50
53282;DHT22;39167;52.794;6.892;2022-09-01T13:03:10;24.10;91.90
53282;DHT22;39167;52.794;6.892;2022-09-01T13:05:43;24.00;92.80
53282;DHT22;39167;52.794;6.892;2022-09-01T13:08:32;23.90;93.00
53282;DHT22;39167;52.794;6.892;2022-09-01T13:11:03;23.80;93.10
53282;DHT22;39167;52.794;6.892;2022-09-01T13:13:30;23.80;93.50
53282;DHT22;39167;52.794;6.892;2022-09-01T13:15:58;24.00;93.50
53282;DHT22;39167;52.794;6.892;2022-09-01T13:18:29;24.20;93.20
53282;DHT22;39167;52.794;6.892;2022-09-01T13:20:56;24.40;93.60
53282;DHT22;39167;52.794;6.892;2022-09-01T13:23:22;24.60;93.10
53282;DHT22;39167;52.794;6.892;2022-09-01T13:25:48;24.90;92.80
53282;DHT22;39167;52.794;6.892;2022-09-01T13:28:15;25.20;92.30
53282;DHT22;39167;52.794;6.892;2022-09-01T13:30:43;25.30;91.90
53282;DHT22;39167;52.794;6.892;2022-09-01T13:33:09;25.30;91.00
53282;DHT22;39167;52.794;6.892;2022-09-01T13:35:37;25.30;91.20
53282;DHT22;39167;52.794;6.892;2022-09-01T13:38:03;25.30;91.00
53282;DHT22;39167;52.794;6.892;2022-09-01T13:40:29;25.40;91.30
53282;DHT22;39167;52.794;6.892;2022-09-01T13:42:55;25.40;90.50
53282;DHT22;39167;52.794;6.892;2022-09-01T13:45:22;25.20;90.50
53282;DHT22;39167;52.794;6.892;2022-09-01T13:47:52;24.90;90.40
53282;DHT22;39167;52.794;6.892;2022-09-01T13:50:20;24.60;90.70
53282;DHT22;39167;52.794;6.892;2022-09-01T13:52:53;24.60;91.00
53282;DHT22;39167;52.794;6.892;2022-09-01T13:55:25;24.60;90.30
53282;DHT22;39167;52.794;6.892;2022-09-01T13:57:51;24.70;90.30
53282;DHT22;39167;52.794;6.892;2022-09-01T14:00:20;24.90;90.20
53282;DHT22;39167;52.794;6.892;2022-09-01T14:02:48;25.00;89.60
53282;DHT22;39167;52.794;6.892;2022-09-01T14:05:27;25.20;89.10
53282;DHT22;39167;52.794;6.892;2022-09-01T14:07:53;25.40;88.10
53282;DHT22;39167;52.794;6.892;2022-09-01T14:10:20;25.40;87.80
53282;DHT22;39167;52.794;6.892;2022-09-01T14:12:47;25.30;86.30
53282;DHT22;39167;52.794;6.892;2022-09-01T14:15:15;25.10;86.20
53282;DHT22;39167;52.794;6.892;2022-09-01T14:17:41;25.10;87.70
53282;DHT22;39167;52.794;6.892;2022-09-01T14:20:10;25.10;86.90
53282;DHT22;39167;52.794;6.892;2022-09-01T14:22:38;25.10;85.80
53282;DHT22;39167;52.794;6.892;2022-09-01T14:25:06;25.10;86.20
53282;DHT22;39167;52.794;6.892;2022-09-01T14:27:32;25.20;87.30
53282;DHT22;39167;52.794;6.892;2022-09-01T14:29:58;25.30;87.00
53282;DHT22;39167;52.794;6.892;2022-09-01T14:32:25;25.40;85.60
53282;DHT22;39167;52.794;6.892;2022-09-01T14:34:55;25.40;85.20
53282;DHT22;39167;52.794;6.892;2022-09-01T14:37:22;25.50;85.70
53282;DHT22;39167;52.794;6.892;2022-09-01T14:39:52;25.50;84.60
53282;DHT22;39167;52.794;6.892;2022-09-01T14:42:19;25.60;84.80
53282;DHT22;39167;52.794;6.892;2022-09-01T14:44:46;25.60;84.30
53282;DHT22;39167;52.794;6.892;2022-09-01T14:47:12;25.60;84.20
53282;DHT22;39167;52.794;6.892;2022-09-01T14:49:38;25.60;84.90
53282;DHT22;39167;52.794;6.892;2022-09-01T14:52:06;25.60;84.40
53282;DHT22;39167;52.794;6.892;2022-09-01T14:54:37;25.50;83.60
53282;DHT22;39167;52.794;6.892;2022-09-01T14:57:04;25.20;83.40
53282;DHT22;39167;52.794;6.892;2022-09-01T14:59:31;25.00;83.20
53282;DHT22;39167;52.794;6.892;2022-09-01T15:01:57;25.00;83.20
53282;DHT22;39167;52.794;6.892;2022-09-01T15:04:23;24.90;82.40
53282;DHT22;39167;52.794;6.892;2022-09-01T15:06:50;25.00;81.90
53282;DHT22;39167;52.794;6.892;2022-09-01T15:09:21;25.00;81.90
53282;DHT22;39167;52.794;6.892;2022-09-01T15:11:47;25.10;82.60
53282;DHT22;39167;52.794;6.892;2022-09-01T15:14:13;25.20;81.70
53282;DHT22;39167;52.794;6.892;2022-09-01T15:16:39;25.30;80.70
53282;DHT22;39167;52.794;6.892;2022-09-01T15:19:11;25.30;80.40
53282;DHT22;39167;52.794;6.892;2022-09-01T15:21:38;25.30;80.10
53282;DHT22;39167;52.794;6.892;2022-09-01T15:24:06;25.10;80.00
53282;DHT22;39167;52.794;6.892;2022-09-01T15:26:32;25.00;80.10
53282;DHT22;39167;52.794;6.892;2022-09-01T15:28:58;24.90;80.30
53282;DHT22;39167;52.794;6.892;2022-09-01T15:31:28;24.90;81.30
53282;DHT22;39167;52.794;6.892;2022-09-01T15:33:57;24.90;80.30
53282;DHT22;39167;52.794;6.892;2022-09-01T15:36:25;25.00;79.90
53282;DHT22;39167;52.794;6.892;2022-09-01T15:38:54;25.00;80.00
53282;DHT22;39167;52.794;6.892;2022-09-01T15:41:23;25.10;79.30
53282;DHT22;39167;52.794;6.892;2022-09-01T15:43:50;25.00;78.60
53282;DHT22;39167;52.794;6.892;2022-09-01T15:46:16;25.10;79.00
53282;DHT22;39167;52.794;6.892;2022-09-01T15:48:42;25.10;79.50
53282;DHT22;39167;52.794;6.892;2022-09-01T15:53:50;25.20;79.60
53282;DHT22;39167;52.794;6.892;2022-09-01T15:56:17;25.30;78.50
53282;DHT22;39167;52.794;6.892;2022-09-01T15:58:43;25.30;78.20
53282;DHT22;39167;52.794;6.892;2022-09-01T16:01:09;25.30;77.80
53282;DHT22;39167;52.794;6.892;2022-09-01T16:03:35;25.30;77.80
53282;DHT22;39167;52.794;6.892;2022-09-01T16:06:01;25.20;76.30
53282;DHT22;39167;52.794;6.892;2022-09-01T16:08:27;25.20;77.00
53282;DHT22;39167;52.794;6.892;2022-09-01T16:10:53;25.20;77.20
53282;DHT22;39167;52.794;6.892;2022-09-01T16:13:19;25.10;76.50
53282;DHT22;39167;52.794;6.892;2022-09-01T16:16:08;25.10;76.20
53282;DHT22;39167;52.794;6.892;2022-09-01T16:24:05;25.10;75.60
53282;DHT22;39167;52.794;6.892;2022-09-01T16:26:33;25.10;76.70
53282;DHT22;39167;52.794;6.892;2022-09-01T16:28:59;25.10;76.20
53282;DHT22;39167;52.794;6.892;2022-09-01T16:31:30;25.10;76.30
53282;DHT22;39167;52.794;6.892;2022-09-01T16:33:58;25.10;76.20
53282;DHT22;39167;52.794;6.892;2022-09-01T16:50:25;24.90;76.30
53282;DHT22;39167;52.794;6.892;2022-09-01T16:55:46;24.90;76.80
53282;DHT22;39167;52.794;6.892;2022-09-01T16:58:18;24.90;76.20
53282;DHT22;39167;52.794;6.892;2022-09-01T17:01:12;24.90;76.10
53282;DHT22;39167;52.794;6.892;2022-09-01T17:06:50;24.90;75.90
53282;DHT22;39167;52.794;6.892;2022-09-01T17:09:39;24.80;77.30
53282;DHT22;39167;52.794;6.892;2022-09-01T17:14:44;24.70;77.00
53282;DHT22;39167;52.794;6.892;2022-09-01T17:17:19;25.00;76.20